Time;durP1;ratioP1;P1;durP2;ratioP2;P2;SDS_P1;SDS_P2;PMS_P1;PMS_P2;Temp;Humidity;BMP_temperature;BMP_pressure;BME280_temperature;BME280_humidity;BME280_pressure;Samples;Min_cycle;Max_cycle;Signal;HPM_P1;HPM_P2
2023/05/15 00:00:36;;;;;;;;;;;22.70;52.70;;;;;;6289571;28;19947;-57
2023/05/15 00:03:37;;;;;;;;;;;22.60;52.80;;;;;;6290514;28;19965;-59
2023/05/15 00:06:39;;;;;;;;;;;22.50;52.70;;;;;;6289914;28;20019;-58
2023/05/15 00:09:41;;;;;;;;;;;22.40;52.60;;;;;;6290368;28;19920;-57
2023/05/15 00:12:42;;;;;;;;;;;22.70;52.80;;;;;;6290825;28;19925;-58
2023/05/15 00:15:43;;;;;;;;;;;22.70;52.80;;;;;;6290417;28;19920;-58
2023/05/15 00:18:45;;;;;;;;;;;22.60;52.80;;;;;;6288936;28;19921;-58
2023/05/15 00:21:49;;;;;;;;;;;22.20;52.70;;;;;;6290486;28;19970;-57
2023/05/15 00:24:51;;;;;;;;;;;22.40;52.90;;;;;;6290227;28;20023;-58
2023/05/15 00:27:52;;;;;;;;;;;22.30;52.70;;;;;;6292272;28;20314;-58
2023/05/15 00:30:53;;;;;;;;;;;22.60;52.90;;;;;;6295027;28;19942;-57
2023/05/15 00:33:55;;;;;;;;;;;22.20;52.80;;;;;;6294517;28;19931;-58
2023/05/15 00:36:57;;;;;;;;;;;22.40;52.70;;;;;;6293175;28;19951;-57
2023/05/15 00:40:01;;;;;;;;;;;22.30;52.80;;;;;;6293573;28;20394;-58
2023/05/15 00:43:03;;;;;;;;;;;22.50;53.00;;;;;;6289771;28;19931;-58
2023/05/15 00:46:05;;;;;;;;;;;22.70;52.90;;;;;;6276934;28;19920;-58
2023/05/15 00:49:12;;;;;;;;;;;22.20;52.60;;;;;;6294553;28;19990;-57
2023/05/15 00:52:14;;;;;;;;;;;22.10;52.60;;;;;;6294715;28;19962;-58
2023/05/15 00:55:17;;;;;;;;;;;22.50;52.90;;;;;;6294699;28;19920;-58
2023/05/15 00:58:20;;;;;;;;;;;21.90;52.60;;;;;;6294517;28;19974;-58
2023/05/15 01:01:24;;;;;;;;;;;22.30;52.80;;;;;;6294475;28;19920;-58
2023/05/15 01:04:26;;;;;;;;;;;22.40;51.50;;;;;;6292436;28;19931;-58
2023/05/15 01:07:29;;;;;;;;;;;22.40;53.00;;;;;;6296054;28;19920;-46
2023/05/15 01:10:34;;;;;;;;;;;22.30;52.90;;;;;;6298046;28;20061;-49
2023/05/15 01:13:35;;;;;;;;;;;22.50;53.00;;;;;;6280155;28;20306;-47
2023/05/15 01:16:40;;;;;;;;;;;22.30;53.00;;;;;;6297621;28;19920;-48
2023/05/15 01:19:42;;;;;;;;;;;22.40;53.00;;;;;;6297344;28;19920;-52
2023/05/15 01:22:47;;;;;;;;;;;22.30;52.80;;;;;;6297650;28;20081;-47
2023/05/15 01:26:03;;;;;;;;;;;22.50;52.90;;;;;;6298906;28;19924;-51
2023/05/15 01:29:07;;;;;;;;;;;21.90;52.70;;;;;;6298270;28;20014;-51
2023/05/15 01:32:10;;;;;;;;;;;22.10;52.70;;;;;;6283686;28;20454;-50
2023/05/15 01:35:13;;;;;;;;;;;22.40;52.90;;;;;;6301695;28;20415;-50
2023/05/15 01:38:22;;;;;;;;;;;22.30;52.90;;;;;;6282606;28;19947;-50
2023/05/15 01:41:27;;;;;;;;;;;22.00;52.70;;;;;;6299094;28;19920;-50
2023/05/15 01:44:30;;;;;;;;;;;22.20;52.80;;;;;;6296705;28;19920;-48
2023/05/15 01:47:35;;;;;;;;;;;22.50;53.10;;;;;;6303821;28;20378;-45
2023/05/15 01:50:38;;;;;;;;;;;22.20;52.90;;;;;;6297936;28;19927;-46
2023/05/15 01:53:39;;;;;;;;;;;22.00;52.70;;;;;;6297206;28;19920;-45
2023/05/15 01:56:44;;;;;;;;;;;22.20;53.00;;;;;;6295565;28;19960;-49
2023/05/15 01:59:46;;;;;;;;;;;22.00;52.90;;;;;;6295858;28;19943;-46
2023/05/15 02:02:50;;;;;;;;;;;22.10;53.00;;;;;;6296304;28;19966;-50
2023/05/15 02:05:55;;;;;;;;;;;22.30;51.10;;;;;;6296056;28;20295;-51
2023/05/15 02:08:59;;;;;;;;;;;22.30;53.10;;;;;;6296691;28;19974;-49
2023/05/15 02:12:01;;;;;;;;;;;22.40;53.10;;;;;;6297508;28;19927;-47
2023/05/15 02:15:08;;;;;;;;;;;22.20;53.00;;;;;;6297062;28;19921;-47
2023/05/15 02:18:10;;;;;;;;;;;22.30;53.10;;;;;;6297234;28;19978;-47
2023/05/15 02:21:11;;;;;;;;;;;22.20;53.20;;;;;;6296843;28;19970;-48
2023/05/15 02:24:12;;;;;;;;;;;21.90;53.00;;;;;;6296703;28;19924;-46
2023/05/15 02:27:18;;;;;;;;;;;22.00;53.10;;;;;;6297027;28;19963;-47
2023/05/15 02:30:28;;;;;;;;;;;21.80;52.90;;;;;;6297201;28;19924;-48
2023/05/15 02:33:34;;;;;;;;;;;22.00;52.90;;;;;;6297896;28;19920;-50
2023/05/15 02:36:39;;;;;;;;;;;22.00;52.90;;;;;;6295551;28;19973;-51
2023/05/15 02:39:42;;;;;;;;;;;22.10;53.10;;;;;;6278976;28;19935;-46
2023/05/15 02:42:45;;;;;;;;;;;21.70;52.80;;;;;;6296299;28;19921;-46
2023/05/15 02:45:48;;;;;;;;;;;22.10;53.10;;;;;;6297686;28;20403;-51
2023/05/15 02:48:51;;;;;;;;;;;22.50;53.40;;;;;;6297236;28;19956;-47
2023/05/15 02:51:53;;;;;;;;;;;22.20;53.20;;;;;;6296064;28;19966;-45
2023/05/15 02:54:54;;;;;;;;;;;21.80;53.10;;;;;;6296721;28;19931;-51
2023/05/15 02:57:56;;;;;;;;;;;22.10;53.30;;;;;;6297180;28;20299;-46
2023/05/15 03:00:58;;;;;;;;;;;21.80;53.00;;;;;;6296926;28;19953;-49
2023/05/15 03:03:59;;;;;;;;;;;22.20;53.40;;;;;;6296632;28;20393;-47
2023/05/15 03:07:00;;;;;;;;;;;21.80;53.20;;;;;;6296378;28;20027;-50
2023/05/15 03:10:02;;;;;;;;;;;22.10;53.30;;;;;;6296446;28;19928;-49
2023/05/15 03:13:05;;;;;;;;;;;22.10;53.40;;;;;;6296068;28;19920;-51
2023/05/15 03:16:07;;;;;;;;;;;22.10;53.30;;;;;;6296165;28;19970;-48
2023/05/15 03:19:08;;;;;;;;;;;22.40;53.50;;;;;;6295645;28;19920;-49
2023/05/15 03:22:09;;;;;;;;;;;21.80;53.20;;;;;;6295062;28;20482;-57
2023/05/15 03:25:11;;;;;;;;;;;21.80;53.30;;;;;;6291964;28;20267;-58
2023/05/15 03:28:12;;;;;;;;;;;22.10;53.40;;;;;;6290220;28;19921;-57
2023/05/15 03:31:14;;;;;;;;;;;21.80;53.30;;;;;;6290381;28;20049;-58
2023/05/15 03:34:15;;;;;;;;;;;22.00;53.40;;;;;;6290176;28;19931;-58
2023/05/15 03:37:17;;;;;;;;;;;21.80;53.40;;;;;;6290757;28;20027;-59
2023/05/15 03:40:18;;;;;;;;;;;22.00;53.50;;;;;;6290957;28;19920;-59
2023/05/15 03:43:20;;;;;;;;;;;21.80;52.90;;;;;;6287729;28;20317;-59
2023/05/15 03:46:23;;;;;;;;;;;22.00;52.90;;;;;;6290302;28;19924;-59
2023/05/15 03:49:24;;;;;;;;;;;22.30;53.20;;;;;;6291277;28;20521;-59
2023/05/15 03:52:26;;;;;;;;;;;22.00;53.00;;;;;;6291127;28;19978;-59
2023/05/15 03:55:30;;;;;;;;;;;21.60;52.80;;;;;;6291169;28;20159;-59
2023/05/15 03:58:31;;;;;;;;;;;21.80;53.60;;;;;;6291130;28;19928;-59
2023/05/15 04:01:33;;;;;;;;;;;21.70;52.80;;;;;;6291258;28;20426;-59
2023/05/15 04:04:45;;;;;;;;;;;22.10;53.00;;;;;;6257994;28;19948;-59
2023/05/15 04:07:46;;;;;;;;;;;22.00;53.00;;;;;;6289685;28;19921;-59
2023/05/15 04:10:47;;;;;;;;;;;22.10;52.90;;;;;;6272433;28;20065;-59
2023/05/15 04:13:52;;;;;;;;;;;21.60;52.80;;;;;;6290686;28;19920;-59
2023/05/15 04:16:58;;;;;;;;;;;22.00;52.90;;;;;;6289956;28;19921;-59
2023/05/15 04:19:59;;;;;;;;;;;22.20;53.10;;;;;;6289717;28;19951;-60
2023/05/15 04:23:02;;;;;;;;;;;21.80;52.90;;;;;;6289330;28;19924;-59
2023/05/15 04:26:04;;;;;;;;;;;21.70;52.80;;;;;;6289552;28;19920;-59
2023/05/15 04:29:05;;;;;;;;;;;21.90;53.50;;;;;;6288606;28;19920;-59
2023/05/15 04:32:07;;;;;;;;;;;21.80;52.90;;;;;;6288682;28;20413;-59
2023/05/15 04:35:10;;;;;;;;;;;21.90;53.00;;;;;;6289032;28;19955;-59
2023/05/15 04:38:12;;;;;;;;;;;22.10;53.00;;;;;;6289425;28;19928;-59
2023/05/15 04:41:13;;;;;;;;;;;22.00;53.10;;;;;;6289029;28;19924;-60
2023/05/15 04:44:14;;;;;;;;;;;21.80;53.00;;;;;;6289134;28;19920;-60
2023/05/15 04:47:16;;;;;;;;;;;21.90;53.00;;;;;;6288918;28;19927;-59
2023/05/15 04:50:18;;;;;;;;;;;21.80;53.00;;;;;;6288698;28;20429;-60
2023/05/15 04:53:19;;;;;;;;;;;21.90;53.10;;;;;;6288833;28;19920;-59
2023/05/15 04:56:20;;;;;;;;;;;21.70;53.00;;;;;;6289069;28;20031;-59
2023/05/15 04:59:24;;;;;;;;;;;22.00;53.10;;;;;;6288273;28;19920;-57
2023/05/15 05:02:26;;;;;;;;;;;21.70;53.00;;;;;;6288203;28;19931;-59
2023/05/15 05:05:28;;;;;;;;;;;22.00;53.10;;;;;;6288133;28;19920;-60
2023/05/15 05:08:29;;;;;;;;;;;22.20;53.30;;;;;;6288360;28;19931;-60
2023/05/15 05:11:33;;;;;;;;;;;22.00;53.20;;;;;;6289163;28;19921;-59
2023/05/15 05:14:35;;;;;;;;;;;21.60;53.00;;;;;;6290777;28;20410;-59
2023/05/15 05:17:40;;;;;;;;;;;22.00;53.00;;;;;;6291340;28;19967;-59
2023/05/15 05:20:42;;;;;;;;;;;22.10;53.20;;;;;;6292535;28;19947;-59
2023/05/15 05:23:44;;;;;;;;;;;21.80;51.70;;;;;;6292068;28;19920;-59
2023/05/15 05:26:45;;;;;;;;;;;21.60;53.20;;;;;;6292000;28;19951;-58
2023/05/15 05:29:46;;;;;;;;;;;22.00;53.20;;;;;;6292252;28;20001;-59
2023/05/15 05:32:48;;;;;;;;;;;21.80;53.20;;;;;;6292456;28;20213;-60
2023/05/15 05:35:52;;;;;;;;;;;22.00;53.20;;;;;;6301327;28;20011;-54
2023/05/15 05:38:53;;;;;;;;;;;21.70;53.10;;;;;;6306882;28;19920;-54
2023/05/15 05:41:55;;;;;;;;;;;21.70;53.10;;;;;;6307048;28;19931;-54
2023/05/15 05:44:56;;;;;;;;;;;22.30;53.40;;;;;;6306859;28;19963;-55
2023/05/15 05:47:58;;;;;;;;;;;22.00;53.20;;;;;;6304655;28;19973;-53
2023/05/15 05:50:59;;;;;;;;;;;22.10;53.40;;;;;;6303809;28;19920;-55
2023/05/15 05:54:01;;;;;;;;;;;21.70;53.10;;;;;;6301455;28;19920;-54
2023/05/15 05:57:02;;;;;;;;;;;22.20;53.40;;;;;;6300265;28;20113;-54
2023/05/15 06:00:05;;;;;;;;;;;22.10;53.30;;;;;;6310094;28;19920;-56
2023/05/15 06:03:10;;;;;;;;;;;22.00;52.80;;;;;;6304812;28;19920;-53
2023/05/15 06:06:12;;;;;;;;;;;22.00;53.30;;;;;;6304657;28;19920;-56
2023/05/15 06:09:13;;;;;;;;;;;21.80;53.30;;;;;;6300378;28;19928;-56
2023/05/15 06:12:15;;;;;;;;;;;22.00;53.10;;;;;;6304859;28;19921;-53
2023/05/15 06:15:18;;;;;;;;;;;22.00;53.30;;;;;;6301328;28;19916;-55
2023/05/15 06:18:24;;;;;;;;;;;22.50;53.40;;;;;;6300605;28;20308;-56
2023/05/15 06:21:25;;;;;;;;;;;22.10;53.30;;;;;;6299844;28;20003;-55
2023/05/15 06:24:27;;;;;;;;;;;22.00;53.30;;;;;;6296373;28;20106;-53
2023/05/15 06:27:28;;;;;;;;;;;22.10;53.40;;;;;;6301068;28;19920;-54
2023/05/15 06:30:30;;;;;;;;;;;21.80;53.10;;;;;;6292694;28;19920;-57
2023/05/15 06:33:32;;;;;;;;;;;22.30;53.60;;;;;;6309283;28;19908;-51
2023/05/15 06:36:34;;;;;;;;;;;22.00;53.30;;;;;;6322303;28;19923;-54
2023/05/15 06:39:36;;;;;;;;;;;22.30;53.40;;;;;;6303793;28;19927;-52
2023/05/15 06:42:37;;;;;;;;;;;22.00;53.20;;;;;;6290904;28;19921;-50
2023/05/15 06:45:38;;;;;;;;;;;22.30;53.60;;;;;;6304930;28;19958;-53
2023/05/15 06:48:40;;;;;;;;;;;22.10;53.40;;;;;;6300008;28;19928;-52
2023/05/15 06:51:42;;;;;;;;;;;22.00;53.30;;;;;;6290832;28;19924;-49
2023/05/15 06:54:46;;;;;;;;;;;22.00;53.20;;;;;;6307144;28;19928;-49
2023/05/15 06:57:47;;;;;;;;;;;22.20;53.30;;;;;;6293333;28;20084;-46
2023/05/15 07:00:50;;;;;;;;;;;22.00;53.10;;;;;;6285526;28;19921;-47
2023/05/15 07:03:53;;;;;;;;;;;22.30;53.40;;;;;;6277346;28;20027;-50
2023/05/15 07:06:57;;;;;;;;;;;22.10;53.30;;;;;;6269746;28;19987;-53
2023/05/15 07:09:58;;;;;;;;;;;22.30;53.70;;;;;;6270359;28;19942;-51
2023/05/15 07:13:04;;;;;;;;;;;21.90;53.20;;;;;;6277540;28;19920;-53
2023/05/15 07:16:05;;;;;;;;;;;22.00;51.20;;;;;;6280077;28;20638;-53
2023/05/15 07:19:09;;;;;;;;;;;22.10;53.00;;;;;;6303839;28;19924;-55
2023/05/15 07:22:10;;;;;;;;;;;22.50;53.30;;;;;;6296892;28;19916;-57
2023/05/15 07:25:11;;;;;;;;;;;22.10;53.00;;;;;;6278056;28;20065;-58
2023/05/15 07:28:15;;;;;;;;;;;22.00;53.00;;;;;;6273750;28;20443;-57
2023/05/15 07:31:16;;;;;;;;;;;22.00;53.00;;;;;;6279801;28;19924;-53
2023/05/15 07:34:19;;;;;;;;;;;22.50;53.40;;;;;;6273650;28;19926;-53
2023/05/15 07:37:21;;;;;;;;;;;22.20;52.80;;;;;;6273578;28;19982;-49
2023/05/15 07:40:23;;;;;;;;;;;22.30;53.30;;;;;;6273032;28;20012;-50
2023/05/15 07:43:24;;;;;;;;;;;22.00;53.10;;;;;;6288862;28;20516;-49
2023/05/15 07:46:27;;;;;;;;;;;22.20;53.10;;;;;;6275838;28;20725;-49
2023/05/15 07:49:30;;;;;;;;;;;22.10;53.10;;;;;;6271559;28;20394;-50
2023/05/15 07:52:31;;;;;;;;;;;22.30;52.90;;;;;;6286461;28;20018;-53
2023/05/15 07:55:33;;;;;;;;;;;22.10;52.90;;;;;;6280903;28;20422;-53
2023/05/15 07:58:37;;;;;;;;;;;22.50;53.20;;;;;;6280888;28;19959;-51
2023/05/15 08:01:38;;;;;;;;;;;22.30;51.20;;;;;;6276570;28;19924;-52
2023/05/15 08:04:40;;;;;;;;;;;22.40;53.20;;;;;;6277338;28;20631;-52
2023/05/15 08:07:42;;;;;;;;;;;22.20;53.10;;;;;;6280327;28;19932;-49
2023/05/15 08:10:43;;;;;;;;;;;22.50;53.20;;;;;;6255717;28;19972;-54
2023/05/15 08:13:44;;;;;;;;;;;22.30;53.10;;;;;;6266002;28;20528;-51
2023/05/15 08:16:46;;;;;;;;;;;22.60;53.10;;;;;;6279535;28;19920;-51
2023/05/15 08:19:48;;;;;;;;;;;22.20;52.80;;;;;;6278915;28;19999;-53
2023/05/15 08:22:49;;;;;;;;;;;22.50;53.10;;;;;;6256380;28;19924;-53
2023/05/15 08:25:51;;;;;;;;;;;22.40;52.90;;;;;;6276504;28;19951;-50
2023/05/15 08:28:52;;;;;;;;;;;22.50;53.00;;;;;;6282062;28;20600;-52
2023/05/15 08:31:53;;;;;;;;;;;22.30;52.90;;;;;;6272270;28;19959;-51
2023/05/15 08:34:55;;;;;;;;;;;22.30;53.00;;;;;;6278430;28;19974;-53
2023/05/15 08:37:57;;;;;;;;;;;22.20;52.90;;;;;;6270624;28;19924;-54
2023/05/15 08:41:02;;;;;;;;;;;22.50;52.90;;;;;;6274267;28;19931;-53
2023/05/15 08:44:04;;;;;;;;;;;22.40;53.00;;;;;;6257190;28;19936;-54
2023/05/15 08:47:05;;;;;;;;;;;22.50;52.90;;;;;;6268823;28;20596;-57
2023/05/15 08:50:10;;;;;;;;;;;22.40;53.00;;;;;;6274476;28;20357;-54
2023/05/15 08:53:12;;;;;;;;;;;22.30;52.90;;;;;;6275880;28;19934;-55
2023/05/15 08:56:13;;;;;;;;;;;22.50;53.30;;;;;;6273031;28;20506;-54
2023/05/15 08:59:15;;;;;;;;;;;22.30;52.80;;;;;;6278666;28;20447;-54
2023/05/15 09:02:17;;;;;;;;;;;22.40;52.80;;;;;;6279084;28;19921;-56
2023/05/15 09:05:19;;;;;;;;;;;22.30;52.80;;;;;;6268398;28;19927;-57
2023/05/15 09:08:21;;;;;;;;;;;22.10;52.70;;;;;;6273493;28;19927;-55
2023/05/15 09:11:23;;;;;;;;;;;22.80;53.10;;;;;;6259335;28;20021;-55
2023/05/15 09:14:25;;;;;;;;;;;22.50;53.30;;;;;;6216197;28;19943;-58
2023/05/15 09:17:26;;;;;;;;;;;22.60;53.20;;;;;;6249665;28;20594;-55
2023/05/15 09:20:32;;;;;;;;;;;22.20;52.80;;;;;;6271839;28;20631;-58
2023/05/15 09:23:33;;;;;;;;;;;22.50;53.00;;;;;;6255281;28;20511;-56
2023/05/15 09:26:34;;;;;;;;;;;22.40;52.60;;;;;;6270361;28;20430;-58
2023/05/15 09:29:36;;;;;;;;;;;22.50;53.20;;;;;;6268418;28;20005;-56
2023/05/15 09:32:38;;;;;;;;;;;22.60;53.40;;;;;;6269134;28;20017;-57
2023/05/15 09:35:40;;;;;;;;;;;22.50;52.90;;;;;;6254775;28;20666;-58
2023/05/15 09:38:46;;;;;;;;;;;22.30;53.00;;;;;;6259920;28;20632;-58
2023/05/15 09:41:47;;;;;;;;;;;22.50;53.30;;;;;;6245652;28;20396;-58
2023/05/15 09:44:49;;;;;;;;;;;22.60;52.80;;;;;;6273586;28;20252;-58
2023/05/15 09:47:51;;;;;;;;;;;22.60;53.20;;;;;;6269200;28;19924;-54
2023/05/15 09:50:54;;;;;;;;;;;22.40;52.90;;;;;;6266395;28;19928;-57
2023/05/15 09:53:55;;;;;;;;;;;22.60;53.80;;;;;;6249699;28;20001;-54
2023/05/15 09:57:05;;;;;;;;;;;22.20;53.10;;;;;;6266078;28;19921;-57
2023/05/15 10:00:10;;;;;;;;;;;22.40;53.30;;;;;;6264747;28;20489;-54
2023/05/15 10:03:12;;;;;;;;;;;22.60;53.40;;;;;;6269594;28;19924;-52
2023/05/15 10:06:18;;;;;;;;;;;22.60;53.20;;;;;;6255933;28;20610;-54
2023/05/15 10:09:20;;;;;;;;;;;22.60;53.50;;;;;;6228300;28;20777;-53
2023/05/15 10:12:23;;;;;;;;;;;22.60;53.20;;;;;;6230473;28;19917;-55
2023/05/15 10:15:24;;;;;;;;;;;22.50;53.20;;;;;;6231789;28;19978;-56
2023/05/15 10:18:27;;;;;;;;;;;22.60;53.00;;;;;;6221773;28;19923;-55
2023/05/15 10:21:30;;;;;;;;;;;22.60;53.40;;;;;;6238943;28;20621;-57
2023/05/15 10:24:32;;;;;;;;;;;22.90;53.30;;;;;;6255561;28;20021;-55
2023/05/15 10:27:36;;;;;;;;;;;22.60;53.60;;;;;;6258122;28;19920;-54
2023/05/15 10:30:38;;;;;;;;;;;22.80;53.40;;;;;;6212948;28;20397;-55
2023/05/15 10:33:39;;;;;;;;;;;22.70;53.30;;;;;;6245178;28;20024;-54
2023/05/15 10:36:42;;;;;;;;;;;22.50;53.30;;;;;;6220574;28;19920;-57
2023/05/15 10:39:45;;;;;;;;;;;22.50;53.20;;;;;;6264987;28;20637;-54
2023/05/15 10:42:46;;;;;;;;;;;23.00;53.50;;;;;;6272365;28;20658;-53
2023/05/15 10:45:49;;;;;;;;;;;22.60;53.30;;;;;;6277958;28;19920;-54
2023/05/15 10:48:50;;;;;;;;;;;22.70;53.40;;;;;;6278311;28;19928;-54
2023/05/15 10:51:52;;;;;;;;;;;22.60;53.30;;;;;;6273730;28;19920;-54
2023/05/15 10:54:55;;;;;;;;;;;22.50;53.40;;;;;;6274255;28;19924;-54
2023/05/15 10:57:57;;;;;;;;;;;22.20;53.10;;;;;;6277027;28;19970;-55
2023/05/15 11:01:00;;;;;;;;;;;22.50;53.40;;;;;;6278089;28;19921;-56
2023/05/15 11:04:04;;;;;;;;;;;22.50;53.50;;;;;;6276669;28;20016;-57
2023/05/15 11:07:14;;;;;;;;;;;22.40;53.30;;;;;;6277426;28;20020;-55
2023/05/15 11:10:23;;;;;;;;;;;22.50;53.30;;;;;;6277750;28;20600;-51
2023/05/15 11:13:25;;;;;;;;;;;23.50;53.90;;;;;;6276475;28;19920;-55
2023/05/15 11:16:43;;;;;;;;;;;22.60;53.50;;;;;;6281159;28;20426;-54
2023/05/15 11:19:56;;;;;;;;;;;22.70;53.50;;;;;;6282467;28;19920;-52
2023/05/15 11:23:00;;;;;;;;;;;22.70;53.50;;;;;;6241392;28;19920;-51
2023/05/15 11:26:02;;;;;;;;;;;22.90;53.90;;;;;;6256262;28;19920;-54
2023/05/15 11:29:16;;;;;;;;;;;22.60;53.50;;;;;;6278869;28;19986;-55
2023/05/15 11:32:32;;;;;;;;;;;22.80;53.70;;;;;;6256022;28;19923;-51
2023/05/15 11:35:35;;;;;;;;;;;22.90;54.00;;;;;;6246659;28;19954;-51
2023/05/15 11:38:38;;;;;;;;;;;22.90;53.70;;;;;;6251466;28;19920;-55
2023/05/15 11:41:40;;;;;;;;;;;22.50;53.60;;;;;;6272633;28;19923;-56
2023/05/15 11:44:41;;;;;;;;;;;22.90;53.90;;;;;;6270922;28;19970;-59
2023/05/15 11:47:44;;;;;;;;;;;22.70;53.70;;;;;;6275977;28;19916;-57
2023/05/15 11:50:45;;;;;;;;;;;22.50;53.60;;;;;;6316402;28;19908;-57
2023/05/15 11:53:49;;;;;;;;;;;22.70;53.70;;;;;;6294249;28;20137;-58
2023/05/15 11:56:50;;;;;;;;;;;23.10;53.90;;;;;;6295910;28;19923;-56
2023/05/15 11:59:53;;;;;;;;;;;22.80;53.80;;;;;;6306467;28;20184;-56
2023/05/15 12:02:54;;;;;;;;;;;22.70;53.60;;;;;;6314602;28;19978;-53
2023/05/15 12:05:56;;;;;;;;;;;22.60;53.60;;;;;;6313783;28;19920;-54
2023/05/15 12:09:01;;;;;;;;;;;22.60;53.70;;;;;;6274703;28;20007;-58
2023/05/15 12:12:05;;;;;;;;;;;22.60;53.90;;;;;;6252614;28;19928;-58
2023/05/15 12:15:09;;;;;;;;;;;22.80;53.60;;;;;;6262742;28;19920;-54
2023/05/15 12:18:11;;;;;;;;;;;22.70;53.50;;;;;;6267830;28;20596;-57
2023/05/15 12:21:12;;;;;;;;;;;23.00;53.80;;;;;;6267112;28;20529;-57
2023/05/15 12:24:18;;;;;;;;;;;22.60;53.60;;;;;;6265243;28;19931;-57
2023/05/15 12:27:20;;;;;;;;;;;22.90;53.70;;;;;;6280008;28;19916;-57
2023/05/15 12:30:22;;;;;;;;;;;22.90;53.70;;;;;;6270592;28;19920;-56
2023/05/15 12:33:23;;;;;;;;;;;22.60;53.40;;;;;;6280204;28;20042;-58
2023/05/15 12:36:28;;;;;;;;;;;22.50;53.50;;;;;;6278289;28;20633;-57
2023/05/15 12:39:30;;;;;;;;;;;22.40;53.50;;;;;;6265613;28;19931;-56
2023/05/15 12:42:37;;;;;;;;;;;22.70;53.70;;;;;;6275703;28;19917;-56
2023/05/15 12:45:39;;;;;;;;;;;22.70;53.60;;;;;;6272084;28;19928;-57
2023/05/15 12:48:41;;;;;;;;;;;22.90;53.60;;;;;;6268430;28;19959;-57
2023/05/15 12:51:42;;;;;;;;;;;22.80;53.40;;;;;;6300279;28;19947;-55
2023/05/15 12:54:45;;;;;;;;;;;22.90;53.60;;;;;;6280822;28;19916;-57
2023/05/15 12:57:47;;;;;;;;;;;22.80;53.70;;;;;;6274202;28;19973;-57
2023/05/15 13:00:50;;;;;;;;;;;22.60;53.70;;;;;;6279253;28;19921;-55
2023/05/15 13:03:51;;;;;;;;;;;22.60;53.40;;;;;;6293062;28;19920;-53
2023/05/15 13:06:53;;;;;;;;;;;22.60;53.40;;;;;;6276056;28;19953;-57
2023/05/15 13:10:03;;;;;;;;;;;22.80;53.60;;;;;;6283533;28;20379;-55
2023/05/15 13:13:05;;;;;;;;;;;22.80;53.40;;;;;;6255888;28;20474;-58
2023/05/15 13:16:16;;;;;;;;;;;22.70;53.50;;;;;;6258618;28;19927;-56
2023/05/15 13:19:17;;;;;;;;;;;21.70;53.00;;;;;;6262208;28;19920;-55
2023/05/15 13:22:19;;;;;;;;;;;22.80;53.60;;;;;;6272174;28;19927;-55
2023/05/15 13:25:21;;;;;;;;;;;22.70;53.30;;;;;;6278203;28;19916;-56
2023/05/15 13:28:23;;;;;;;;;;;22.50;53.40;;;;;;6275243;28;19927;-57
2023/05/15 13:31:24;;;;;;;;;;;22.70;53.80;;;;;;6276068;28;19924;-56
2023/05/15 13:34:27;;;;;;;;;;;22.40;53.50;;;;;;6284311;28;19947;-58
2023/05/15 13:37:28;;;;;;;;;;;22.70;53.60;;;;;;6286707;28;19924;-57
2023/05/15 13:40:31;;;;;;;;;;;22.60;53.60;;;;;;6295005;28;20399;-55
2023/05/15 13:43:32;;;;;;;;;;;22.80;53.60;;;;;;6287034;28;19916;-57
2023/05/15 13:46:34;;;;;;;;;;;22.70;53.60;;;;;;6286923;28;19916;-58
2023/05/15 13:49:35;;;;;;;;;;;22.60;53.50;;;;;;6280092;28;19965;-58
2023/05/15 13:52:37;;;;;;;;;;;23.00;53.80;;;;;;6295441;28;20629;-56
2023/05/15 13:55:38;;;;;;;;;;;22.90;53.50;;;;;;6284588;28;19916;-57
2023/05/15 13:58:41;;;;;;;;;;;22.70;53.60;;;;;;6298162;28;19969;-58
2023/05/15 14:01:42;;;;;;;;;;;22.80;53.70;;;;;;6275454;28;19920;-57
2023/05/15 14:04:46;;;;;;;;;;;22.80;53.80;;;;;;6268265;28;20615;-54
2023/05/15 14:07:47;;;;;;;;;;;22.80;53.60;;;;;;6250161;28;19920;-56
2023/05/15 14:10:49;;;;;;;;;;;21.90;53.20;;;;;;6272478;28;19974;-57
2023/05/15 14:13:50;;;;;;;;;;;22.80;53.60;;;;;;6251570;28;19923;-53
2023/05/15 14:16:52;;;;;;;;;;;22.80;53.50;;;;;;6273757;28;19926;-57
2023/05/15 14:19:54;;;;;;;;;;;22.60;53.40;;;;;;6275208;28;19924;-55
2023/05/15 14:22:55;;;;;;;;;;;22.70;53.40;;;;;;6255656;28;20585;-55
2023/05/15 14:25:57;;;;;;;;;;;22.60;53.40;;;;;;6273124;28;19920;-55
2023/05/15 14:28:58;;;;;;;;;;;22.90;53.60;;;;;;6272697;28;19920;-59
2023/05/15 14:32:00;;;;;;;;;;;22.80;53.40;;;;;;6270124;28;20586;-59
2023/05/15 14:35:01;;;;;;;;;;;23.00;53.70;;;;;;6274303;28;19964;-58
2023/05/15 14:38:03;;;;;;;;;;;22.90;53.50;;;;;;6274138;28;19925;-58
2023/05/15 14:41:05;;;;;;;;;;;22.60;53.30;;;;;;6278816;28;19925;-58
2023/05/15 14:44:06;;;;;;;;;;;22.70;53.30;;;;;;6280298;28;20585;-58
2023/05/15 14:47:11;;;;;;;;;;;22.60;53.20;;;;;;6278770;28;19916;-58
2023/05/15 14:50:12;;;;;;;;;;;22.60;53.10;;;;;;6273143;28;19920;-58
2023/05/15 14:53:13;;;;;;;;;;;22.70;53.30;;;;;;6303921;28;20129;-59
2023/05/15 14:56:15;;;;;;;;;;;22.70;53.50;;;;;;6287585;28;19928;-58
2023/05/15 14:59:17;;;;;;;;;;;22.90;53.40;;;;;;6289561;28;20291;-58
2023/05/15 15:02:18;;;;;;;;;;;22.60;53.50;;;;;;6290749;28;19924;-58
2023/05/15 15:05:19;;;;;;;;;;;22.60;53.30;;;;;;6304848;28;19950;-59
2023/05/15 15:08:21;;;;;;;;;;;22.80;53.10;;;;;;6316452;28;19916;-58
2023/05/15 15:11:23;;;;;;;;;;;22.90;53.40;;;;;;6319214;28;19936;-58
2023/05/15 15:14:24;;;;;;;;;;;22.70;53.20;;;;;;6298411;28;19924;-59
2023/05/15 15:17:26;;;;;;;;;;;22.90;53.30;;;;;;6301049;28;19931;-59
2023/05/15 15:23:58;;;;;;;;;;;22.70;51.80;;;;;;6503316;23;19921;-57
2023/05/15 15:27:02;;;;;;;;;;;22.90;53.20;;;;;;6151500;28;19906;-59
2023/05/15 15:30:03;;;;;;;;;;;22.90;53.20;;;;;;6162803;28;19933;-58
2023/05/15 15:33:04;;;;;;;;;;;22.60;53.00;;;;;;6149517;28;19930;-57
2023/05/15 15:36:06;;;;;;;;;;;22.90;53.10;;;;;;6136211;28;20013;-58
2023/05/15 15:39:07;;;;;;;;;;;23.00;53.20;;;;;;6131376;28;19926;-56
2023/05/15 15:42:09;;;;;;;;;;;22.80;53.10;;;;;;6134373;29;20666;-56
2023/05/15 15:45:12;;;;;;;;;;;22.80;53.00;;;;;;6141575;28;19933;-56
2023/05/15 15:48:14;;;;;;;;;;;23.00;53.10;;;;;;6131698;28;19918;-58
2023/05/15 15:51:15;;;;;;;;;;;22.80;53.00;;;;;;6128213;28;20012;-58
2023/05/15 15:54:17;;;;;;;;;;;22.70;52.70;;;;;;6129418;28;20648;-58
2023/05/15 15:57:19;;;;;;;;;;;22.70;52.90;;;;;;6129327;28;20613;-58
2023/05/15 16:00:22;;;;;;;;;;;22.90;52.80;;;;;;6126910;28;19922;-57
2023/05/15 16:03:24;;;;;;;;;;;22.80;52.70;;;;;;6118992;28;19929;-54
2023/05/15 16:06:25;;;;;;;;;;;22.80;52.90;;;;;;6093582;28;19957;-58
2023/05/15 16:09:27;;;;;;;;;;;23.00;52.90;;;;;;6114951;28;19922;-56
2023/05/15 16:12:29;;;;;;;;;;;22.40;52.50;;;;;;6113049;28;19918;-55
2023/05/15 16:15:30;;;;;;;;;;;22.70;52.60;;;;;;6119050;28;19922;-57
2023/05/15 16:18:31;;;;;;;;;;;22.90;52.50;;;;;;6107708;28;19922;-60
2023/05/15 16:21:35;;;;;;;;;;;22.80;52.60;;;;;;6121674;28;19933;-59
2023/05/15 16:24:36;;;;;;;;;;;23.00;52.60;;;;;;6125223;28;19922;-55
2023/05/15 16:27:39;;;;;;;;;;;22.80;52.50;;;;;;6131878;28;19923;-59
2023/05/15 16:30:41;;;;;;;;;;;22.90;52.50;;;;;;6135544;28;19922;-57
2023/05/15 16:33:51;;;;;;;;;;;23.00;51.20;;;;;;6126546;28;20009;-57
2023/05/15 16:36:52;;;;;;;;;;;22.80;52.10;;;;;;6132701;29;19926;-56
2023/05/15 16:39:53;;;;;;;;;;;22.80;52.30;;;;;;6134888;28;19962;-55
2023/05/15 16:42:55;;;;;;;;;;;23.00;52.30;;;;;;6129653;28;19929;-54
2023/05/15 16:45:57;;;;;;;;;;;23.00;52.30;;;;;;6138142;28;19923;-56
2023/05/15 16:48:59;;;;;;;;;;;22.80;52.20;;;;;;6139359;28;19942;-56
2023/05/15 16:52:00;;;;;;;;;;;22.70;52.10;;;;;;6115252;28;19974;-56
2023/05/15 16:55:04;;;;;;;;;;;22.60;52.00;;;;;;6132637;28;19926;-54
2023/05/15 16:58:05;;;;;;;;;;;23.10;52.10;;;;;;6134819;28;19978;-54
2023/05/15 17:01:07;;;;;;;;;;;22.60;51.80;;;;;;6132231;28;19930;-55
2023/05/15 17:04:08;;;;;;;;;;;23.20;52.20;;;;;;6285735;23;19923;-57
2023/05/15 17:07:09;;;;;;;;;;;22.80;51.90;;;;;;6106919;29;19931;-55
2023/05/15 17:10:11;;;;;;;;;;;23.10;52.00;;;;;;6111971;29;19934;-57
2023/05/15 17:13:13;;;;;;;;;;;22.70;51.50;;;;;;6112600;29;19922;-55
2023/05/15 17:16:15;;;;;;;;;;;23.30;51.80;;;;;;6113000;29;20022;-57
2023/05/15 17:19:16;;;;;;;;;;;23.00;51.50;;;;;;6115084;29;19929;-56
2023/05/15 17:22:18;;;;;;;;;;;23.00;51.50;;;;;;6111112;29;19922;-57
2023/05/15 17:25:22;;;;;;;;;;;22.60;51.00;;;;;;6114027;29;19949;-55
2023/05/15 17:28:24;;;;;;;;;;;22.90;51.30;;;;;;6114103;29;19922;-56
2023/05/15 17:31:25;;;;;;;;;;;23.10;51.30;;;;;;6114288;29;19922;-55
2023/05/15 17:34:27;;;;;;;;;;;23.20;52.10;;;;;;6114591;29;19954;-56
2023/05/15 17:37:28;;;;;;;;;;;23.10;51.10;;;;;;6116123;29;19923;-56
2023/05/15 17:40:29;;;;;;;;;;;23.20;51.30;;;;;;6115543;29;20651;-57
2023/05/15 17:43:32;;;;;;;;;;;23.00;51.20;;;;;;6116337;29;20558;-55